sensor_id;sensor_type;location;lat;lon;timestamp;P1;durP1;ratioP1;P2;durP2;ratioP2
73954;SDS011;62306;52.516;13.290;2023-02-21T00:02:38;12.02;;;7.53;;
73954;SDS011;62306;52.516;13.290;2023-02-21T00:05:24;10.95;;;6.68;;
73954;SDS011;62306;52.516;13.290;2023-02-21T00:08:09;34.22;;;20.83;;
73954;SDS011;62306;52.516;13.290;2023-02-21T00:10:53;15.82;;;10.48;;
73954;SDS011;62306;52.516;13.290;2023-02-21T00:13:37;11.38;;;7.53;;
73954;SDS011;62306;52.516;13.290;2023-02-21T00:16:22;10.48;;;6.57;;
73954;SDS011;62306;52.516;13.290;2023-02-21T00:19:07;11.25;;;7.03;;
73954;SDS011;62306;52.516;13.290;2023-02-21T00:21:53;11.82;;;7.15;;
73954;SDS011;62306;52.516;13.290;2023-02-21T00:24:37;13.70;;;8.18;;
73954;SDS011;62306;52.516;13.290;2023-02-21T00:27:22;12.60;;;7.57;;
73954;SDS011;62306;52.516;13.290;2023-02-21T00:30:08;10.88;;;6.55;;
73954;SDS011;62306;52.516;13.290;2023-02-21T00:32:53;13.30;;;7.50;;
73954;SDS011;62306;52.516;13.290;2023-02-21T00:35:37;12.40;;;7.30;;
73954;SDS011;62306;52.516;13.290;2023-02-21T00:38:23;10.88;;;7.22;;
73954;SDS011;62306;52.516;13.290;2023-02-21T00:41:08;11.18;;;7.03;;
73954;SDS011;62306;52.516;13.290;2023-02-21T00:43:52;15.50;;;8.50;;
73954;SDS011;62306;52.516;13.290;2023-02-21T00:46:36;14.00;;;7.82;;
73954;SDS011;62306;52.516;13.290;2023-02-21T00:49:20;12.38;;;7.82;;
73954;SDS011;62306;52.516;13.290;2023-02-21T00:52:05;12.80;;;7.70;;
73954;SDS011;62306;52.516;13.290;2023-02-21T00:54:50;13.50;;;7.90;;
73954;SDS011;62306;52.516;13.290;2023-02-21T00:57:35;13.45;;;8.32;;
73954;SDS011;62306;52.516;13.290;2023-02-21T01:00:20;13.77;;;8.05;;
73954;SDS011;62306;52.516;13.290;2023-02-21T01:03:06;13.65;;;7.72;;
73954;SDS011;62306;52.516;13.290;2023-02-21T01:05:51;14.13;;;8.30;;
73954;SDS011;62306;52.516;13.290;2023-02-21T01:08:36;15.38;;;8.38;;
73954;SDS011;62306;52.516;13.290;2023-02-21T01:11:25;16.25;;;8.75;;
73954;SDS011;62306;52.516;13.290;2023-02-21T01:14:10;15.32;;;9.43;;
73954;SDS011;62306;52.516;13.290;2023-02-21T01:16:55;14.68;;;8.85;;
73954;SDS011;62306;52.516;13.290;2023-02-21T01:19:39;12.80;;;7.72;;
73954;SDS011;62306;52.516;13.290;2023-02-21T01:22:24;16.73;;;9.70;;
73954;SDS011;62306;52.516;13.290;2023-02-21T01:25:08;17.38;;;9.73;;
73954;SDS011;62306;52.516;13.290;2023-02-21T01:27:54;16.15;;;9.75;;
73954;SDS011;62306;52.516;13.290;2023-02-21T01:30:38;15.95;;;9.23;;
73954;SDS011;62306;52.516;13.290;2023-02-21T01:33:23;17.90;;;10.38;;
73954;SDS011;62306;52.516;13.290;2023-02-21T01:36:08;18.08;;;10.40;;
73954;SDS011;62306;52.516;13.290;2023-02-21T01:38:53;16.88;;;10.40;;
73954;SDS011;62306;52.516;13.290;2023-02-21T01:41:37;18.20;;;10.27;;
73954;SDS011;62306;52.516;13.290;2023-02-21T01:44:30;17.95;;;10.30;;
73954;SDS011;62306;52.516;13.290;2023-02-21T01:47:17;16.50;;;10.05;;
73954;SDS011;62306;52.516;13.290;2023-02-21T01:50:03;20.35;;;10.68;;
73954;SDS011;62306;52.516;13.290;2023-02-21T01:52:53;19.58;;;10.77;;
73954;SDS011;62306;52.516;13.290;2023-02-21T01:55:37;17.42;;;10.50;;
73954;SDS011;62306;52.516;13.290;2023-02-21T01:58:24;20.08;;;11.20;;
73954;SDS011;62306;52.516;13.290;2023-02-21T02:01:15;20.67;;;11.20;;
73954;SDS011;62306;52.516;13.290;2023-02-21T02:04:06;17.02;;;10.05;;
73954;SDS011;62306;52.516;13.290;2023-02-21T02:06:50;22.52;;;10.80;;
73954;SDS011;62306;52.516;13.290;2023-02-21T02:09:35;20.83;;;10.20;;
73954;SDS011;62306;52.516;13.290;2023-02-21T02:12:27;18.55;;;10.68;;
73954;SDS011;62306;52.516;13.290;2023-02-21T02:15:21;19.70;;;11.65;;
73954;SDS011;62306;52.516;13.290;2023-02-21T02:21:05;17.75;;;10.75;;
73954;SDS011;62306;52.516;13.290;2023-02-21T02:30:09;18.40;;;11.07;;
73954;SDS011;62306;52.516;13.290;2023-02-21T02:33:04;17.95;;;10.40;;
73954;SDS011;62306;52.516;13.290;2023-02-21T02:35:54;19.90;;;10.70;;
73954;SDS011;62306;52.516;13.290;2023-02-21T02:38:26;20.23;;;11.43;;
73954;SDS011;62306;52.516;13.290;2023-02-21T02:40:59;20.60;;;11.57;;
73954;SDS011;62306;52.516;13.290;2023-02-21T02:43:31;22.65;;;13.25;;
73954;SDS011;62306;52.516;13.290;2023-02-21T02:46:04;24.55;;;11.95;;
73954;SDS011;62306;52.516;13.290;2023-02-21T02:48:35;22.63;;;12.38;;
73954;SDS011;62306;52.516;13.290;2023-02-21T02:51:06;20.52;;;11.70;;
73954;SDS011;62306;52.516;13.290;2023-02-21T02:53:36;22.75;;;11.93;;
73954;SDS011;62306;52.516;13.290;2023-02-21T02:56:05;21.35;;;11.75;;
73954;SDS011;62306;52.516;13.290;2023-02-21T02:58:36;24.75;;;13.10;;
73954;SDS011;62306;52.516;13.290;2023-02-21T03:01:10;21.83;;;12.70;;
73954;SDS011;62306;52.516;13.290;2023-02-21T03:03:51;23.50;;;12.32;;
73954;SDS011;62306;52.516;13.290;2023-02-21T03:09:07;18.80;;;11.48;;
73954;SDS011;62306;52.516;13.290;2023-02-21T03:11:42;21.63;;;12.23;;
73954;SDS011;62306;52.516;13.290;2023-02-21T03:14:16;24.17;;;11.85;;
73954;SDS011;62306;52.516;13.290;2023-02-21T03:16:49;20.88;;;11.77;;
73954;SDS011;62306;52.516;13.290;2023-02-21T03:19:22;21.90;;;11.63;;
73954;SDS011;62306;52.516;13.290;2023-02-21T03:21:53;19.50;;;11.95;;
73954;SDS011;62306;52.516;13.290;2023-02-21T03:24:23;20.02;;;11.55;;
73954;SDS011;62306;52.516;13.290;2023-02-21T03:26:51;23.05;;;13.25;;
73954;SDS011;62306;52.516;13.290;2023-02-21T03:29:25;19.17;;;11.18;;
73954;SDS011;62306;52.516;13.290;2023-02-21T03:31:54;20.33;;;11.38;;
73954;SDS011;62306;52.516;13.290;2023-02-21T03:34:23;18.17;;;11.07;;
73954;SDS011;62306;52.516;13.290;2023-02-21T03:36:50;21.85;;;11.57;;
73954;SDS011;62306;52.516;13.290;2023-02-21T03:39:19;18.58;;;11.18;;
73954;SDS011;62306;52.516;13.290;2023-02-21T03:41:46;19.48;;;10.52;;
73954;SDS011;62306;52.516;13.290;2023-02-21T03:44:12;18.80;;;11.82;;
73954;SDS011;62306;52.516;13.290;2023-02-21T03:46:39;17.95;;;11.13;;
73954;SDS011;62306;52.516;13.290;2023-02-21T03:49:06;16.83;;;10.85;;
73954;SDS011;62306;52.516;13.290;2023-02-21T03:51:33;18.73;;;10.60;;
73954;SDS011;62306;52.516;13.290;2023-02-21T03:54:02;17.42;;;10.63;;
73954;SDS011;62306;52.516;13.290;2023-02-21T03:56:29;19.50;;;9.73;;
73954;SDS011;62306;52.516;13.290;2023-02-21T03:58:55;16.23;;;10.13;;
73954;SDS011;62306;52.516;13.290;2023-02-21T04:01:22;20.45;;;11.23;;
73954;SDS011;62306;52.516;13.290;2023-02-21T04:03:49;17.73;;;10.95;;
73954;SDS011;62306;52.516;13.290;2023-02-21T04:06:16;20.20;;;10.50;;
73954;SDS011;62306;52.516;13.290;2023-02-21T04:08:43;16.80;;;10.45;;
73954;SDS011;62306;52.516;13.290;2023-02-21T04:11:12;19.70;;;11.05;;
73954;SDS011;62306;52.516;13.290;2023-02-21T04:13:43;16.38;;;10.10;;
73954;SDS011;62306;52.516;13.290;2023-02-21T04:16:10;20.55;;;11.05;;
73954;SDS011;62306;52.516;13.290;2023-02-21T04:18:37;16.35;;;10.20;;
73954;SDS011;62306;52.516;13.290;2023-02-21T04:21:04;17.05;;;10.13;;
73954;SDS011;62306;52.516;13.290;2023-02-21T04:23:31;18.65;;;10.32;;
73954;SDS011;62306;52.516;13.290;2023-02-21T04:25:58;16.33;;;10.23;;
73954;SDS011;62306;52.516;13.290;2023-02-21T04:28:26;17.33;;;10.57;;
73954;SDS011;62306;52.516;13.290;2023-02-21T04:30:53;19.48;;;10.60;;
73954;SDS011;62306;52.516;13.290;2023-02-21T04:33:20;17.23;;;10.77;;
73954;SDS011;62306;52.516;13.290;2023-02-21T04:35:47;19.00;;;10.75;;
73954;SDS011;62306;52.516;13.290;2023-02-21T04:38:14;16.08;;;10.50;;
73954;SDS011;62306;52.516;13.290;2023-02-21T04:40:41;18.73;;;10.52;;
73954;SDS011;62306;52.516;13.290;2023-02-21T04:43:08;18.92;;;11.57;;
73954;SDS011;62306;52.516;13.290;2023-02-21T04:45:38;21.60;;;11.13;;
73954;SDS011;62306;52.516;13.290;2023-02-21T04:48:05;20.15;;;11.68;;
73954;SDS011;62306;52.516;13.290;2023-02-21T04:50:32;22.00;;;12.05;;
73954;SDS011;62306;52.516;13.290;2023-02-21T04:52:59;21.20;;;11.52;;
73954;SDS011;62306;52.516;13.290;2023-02-21T04:55:26;20.90;;;12.45;;
73954;SDS011;62306;52.516;13.290;2023-02-21T04:57:53;22.38;;;12.40;;
73954;SDS011;62306;52.516;13.290;2023-02-21T05:00:20;20.23;;;11.75;;
73954;SDS011;62306;52.516;13.290;2023-02-21T05:02:49;22.77;;;12.43;;
73954;SDS011;62306;52.516;13.290;2023-02-21T05:05:16;27.52;;;12.25;;
73954;SDS011;62306;52.516;13.290;2023-02-21T05:07:43;23.42;;;12.65;;
73954;SDS011;62306;52.516;13.290;2023-02-21T05:10:10;27.48;;;12.93;;
73954;SDS011;62306;52.516;13.290;2023-02-21T05:12:37;22.50;;;12.50;;
73954;SDS011;62306;52.516;13.290;2023-02-21T05:15:05;23.80;;;13.00;;
73954;SDS011;62306;52.516;13.290;2023-02-21T05:17:32;20.80;;;11.63;;
73954;SDS011;62306;52.516;13.290;2023-02-21T05:20:01;23.52;;;12.48;;
73954;SDS011;62306;52.516;13.290;2023-02-21T05:22:29;44.78;;;25.73;;
73954;SDS011;62306;52.516;13.290;2023-02-21T05:24:55;24.80;;;14.38;;
73954;SDS011;62306;52.516;13.290;2023-02-21T05:27:22;20.90;;;11.93;;
73954;SDS011;62306;52.516;13.290;2023-02-21T05:29:50;20.45;;;11.55;;
73954;SDS011;62306;52.516;13.290;2023-02-21T05:32:19;24.10;;;12.32;;
73954;SDS011;62306;52.516;13.290;2023-02-21T05:34:47;23.88;;;12.93;;
73954;SDS011;62306;52.516;13.290;2023-02-21T05:37:15;24.02;;;12.07;;
73954;SDS011;62306;52.516;13.290;2023-02-21T05:39:45;24.27;;;12.70;;
73954;SDS011;62306;52.516;13.290;2023-02-21T05:42:12;21.33;;;11.82;;
73954;SDS011;62306;52.516;13.290;2023-02-21T05:44:39;27.52;;;12.55;;
73954;SDS011;62306;52.516;13.290;2023-02-21T05:47:08;22.90;;;12.13;;
73954;SDS011;62306;52.516;13.290;2023-02-21T05:49:35;22.98;;;12.88;;
73954;SDS011;62306;52.516;13.290;2023-02-21T05:52:02;24.35;;;11.85;;
73954;SDS011;62306;52.516;13.290;2023-02-21T05:54:31;25.60;;;12.65;;
73954;SDS011;62306;52.516;13.290;2023-02-21T05:56:58;24.90;;;12.00;;
73954;SDS011;62306;52.516;13.290;2023-02-21T05:59:25;26.55;;;12.73;;
73954;SDS011;62306;52.516;13.290;2023-02-21T06:01:52;28.63;;;13.25;;
73954;SDS011;62306;52.516;13.290;2023-02-21T06:04:19;25.30;;;13.38;;
73954;SDS011;62306;52.516;13.290;2023-02-21T06:06:46;23.13;;;12.07;;
73954;SDS011;62306;52.516;13.290;2023-02-21T06:09:13;21.58;;;11.85;;
73954;SDS011;62306;52.516;13.290;2023-02-21T06:11:42;21.20;;;11.15;;
73954;SDS011;62306;52.516;13.290;2023-02-21T06:14:12;22.95;;;11.73;;
73954;SDS011;62306;52.516;13.290;2023-02-21T06:16:40;28.02;;;12.13;;
73954;SDS011;62306;52.516;13.290;2023-02-21T06:19:07;25.23;;;12.23;;
73954;SDS011;62306;52.516;13.290;2023-02-21T06:21:36;22.15;;;10.98;;
73954;SDS011;62306;52.516;13.290;2023-02-21T06:24:06;24.42;;;12.23;;
73954;SDS011;62306;52.516;13.290;2023-02-21T06:26:33;23.48;;;12.73;;
73954;SDS011;62306;52.516;13.290;2023-02-21T06:29:02;27.38;;;15.13;;
73954;SDS011;62306;52.516;13.290;2023-02-21T06:31:30;20.85;;;11.00;;
73954;SDS011;62306;52.516;13.290;2023-02-21T06:33:57;25.48;;;11.90;;
73954;SDS011;62306;52.516;13.290;2023-02-21T06:36:25;27.63;;;15.35;;
73954;SDS011;62306;52.516;13.290;2023-02-21T06:38:54;24.90;;;13.32;;
73954;SDS011;62306;52.516;13.290;2023-02-21T06:41:23;25.33;;;12.40;;
73954;SDS011;62306;52.516;13.290;2023-02-21T06:43:52;23.90;;;11.65;;
73954;SDS011;62306;52.516;13.290;2023-02-21T06:46:22;23.88;;;12.48;;
73954;SDS011;62306;52.516;13.290;2023-02-21T06:48:50;21.45;;;10.88;;
73954;SDS011;62306;52.516;13.290;2023-02-21T06:51:17;19.77;;;11.07;;
73954;SDS011;62306;52.516;13.290;2023-02-21T06:53:47;17.58;;;9.65;;
73954;SDS011;62306;52.516;13.290;2023-02-21T06:56:15;21.83;;;10.48;;
73954;SDS011;62306;52.516;13.290;2023-02-21T06:58:42;20.65;;;10.10;;
73954;SDS011;62306;52.516;13.290;2023-02-21T07:01:09;19.38;;;10.02;;
73954;SDS011;62306;52.516;13.290;2023-02-21T07:03:39;19.63;;;10.05;;
73954;SDS011;62306;52.516;13.290;2023-02-21T07:06:08;15.63;;;8.98;;
73954;SDS011;62306;52.516;13.290;2023-02-21T07:08:35;17.42;;;8.60;;
73954;SDS011;62306;52.516;13.290;2023-02-21T07:11:02;20.35;;;9.35;;
73954;SDS011;62306;52.516;13.290;2023-02-21T07:13:30;16.10;;;8.90;;
73954;SDS011;62306;52.516;13.290;2023-02-21T07:15:58;18.58;;;9.20;;
73954;SDS011;62306;52.516;13.290;2023-02-21T07:18:25;22.95;;;10.07;;
73954;SDS011;62306;52.516;13.290;2023-02-21T07:20:53;18.13;;;9.05;;
73954;SDS011;62306;52.516;13.290;2023-02-21T07:23:20;18.80;;;9.48;;
73954;SDS011;62306;52.516;13.290;2023-02-21T07:25:47;17.25;;;8.77;;
73954;SDS011;62306;52.516;13.290;2023-02-21T07:28:14;19.02;;;9.43;;
73954;SDS011;62306;52.516;13.290;2023-02-21T07:30:41;14.52;;;8.38;;
73954;SDS011;62306;52.516;13.290;2023-02-21T07:33:08;15.68;;;8.13;;
73954;SDS011;62306;52.516;13.290;2023-02-21T07:35:35;14.90;;;7.82;;
73954;SDS011;62306;52.516;13.290;2023-02-21T07:38:03;37.22;;;20.42;;
73954;SDS011;62306;52.516;13.290;2023-02-21T07:40:30;17.70;;;9.75;;
73954;SDS011;62306;52.516;13.290;2023-02-21T07:42:57;15.32;;;8.02;;
73954;SDS011;62306;52.516;13.290;2023-02-21T07:45:24;15.77;;;7.78;;
73954;SDS011;62306;52.516;13.290;2023-02-21T07:47:51;10.73;;;6.20;;
73954;SDS011;62306;52.516;13.290;2023-02-21T07:50:18;11.90;;;6.63;;
73954;SDS011;62306;52.516;13.290;2023-02-21T07:52:47;8.80;;;5.30;;
73954;SDS011;62306;52.516;13.290;2023-02-21T07:55:16;10.65;;;5.60;;
73954;SDS011;62306;52.516;13.290;2023-02-21T07:57:43;11.25;;;6.05;;
73954;SDS011;62306;52.516;13.290;2023-02-21T08:00:11;15.05;;;8.98;;
73954;SDS011;62306;52.516;13.290;2023-02-21T08:02:38;28.10;;;16.35;;
73954;SDS011;62306;52.516;13.290;2023-02-21T08:05:06;7.15;;;4.80;;
73954;SDS011;62306;52.516;13.290;2023-02-21T08:07:33;7.68;;;3.80;;
73954;SDS011;62306;52.516;13.290;2023-02-21T08:10:01;5.22;;;3.15;;
73954;SDS011;62306;52.516;13.290;2023-02-21T08:12:30;4.63;;;3.28;;
73954;SDS011;62306;52.516;13.290;2023-02-21T08:14:57;2.78;;;2.05;;
73954;SDS011;62306;52.516;13.290;2023-02-21T08:17:24;2.53;;;2.17;;
73954;SDS011;62306;52.516;13.290;2023-02-21T08:19:51;5.10;;;2.60;;
73954;SDS011;62306;52.516;13.290;2023-02-21T08:22:18;5.43;;;2.72;;
73954;SDS011;62306;52.516;13.290;2023-02-21T08:24:47;3.65;;;1.90;;
73954;SDS011;62306;52.516;13.290;2023-02-21T08:27:14;2.85;;;1.85;;
73954;SDS011;62306;52.516;13.290;2023-02-21T08:29:43;2.67;;;1.73;;
73954;SDS011;62306;52.516;13.290;2023-02-21T08:32:11;2.92;;;1.70;;
73954;SDS011;62306;52.516;13.290;2023-02-21T08:34:38;3.33;;;1.58;;
73954;SDS011;62306;52.516;13.290;2023-02-21T08:37:05;2.00;;;1.63;;
73954;SDS011;62306;52.516;13.290;2023-02-21T08:39:43;1.77;;;1.33;;
73954;SDS011;62306;52.516;13.290;2023-02-21T08:42:10;4.50;;;1.30;;
73954;SDS011;62306;52.516;13.290;2023-02-21T08:44:37;1.10;;;1.00;;
73954;SDS011;62306;52.516;13.290;2023-02-21T08:47:06;1.35;;;0.90;;
73954;SDS011;62306;52.516;13.290;2023-02-21T08:49:33;2.08;;;1.17;;
73954;SDS011;62306;52.516;13.290;2023-02-21T08:52:04;1.75;;;1.08;;
73954;SDS011;62306;52.516;13.290;2023-02-21T08:54:31;3.17;;;1.20;;
73954;SDS011;62306;52.516;13.290;2023-02-21T08:56:58;5.03;;;1.25;;
73954;SDS011;62306;52.516;13.290;2023-02-21T08:59:25;2.05;;;1.02;;
73954;SDS011;62306;52.516;13.290;2023-02-21T09:01:54;1.95;;;1.17;;
73954;SDS011;62306;52.516;13.290;2023-02-21T09:04:23;1.88;;;1.25;;
73954;SDS011;62306;52.516;13.290;2023-02-21T09:06:51;2.42;;;1.17;;
73954;SDS011;62306;52.516;13.290;2023-02-21T09:09:19;3.53;;;1.55;;
73954;SDS011;62306;52.516;13.290;2023-02-21T09:11:46;2.47;;;1.50;;
73954;SDS011;62306;52.516;13.290;2023-02-21T09:14:13;4.03;;;3.08;;
73954;SDS011;62306;52.516;13.290;2023-02-21T09:16:41;2.97;;;1.65;;
73954;SDS011;62306;52.516;13.290;2023-02-21T09:19:08;2.88;;;1.70;;
73954;SDS011;62306;52.516;13.290;2023-02-21T09:21:43;4.72;;;2.10;;
73954;SDS011;62306;52.516;13.290;2023-02-21T09:24:11;4.22;;;1.77;;
73954;SDS011;62306;52.516;13.290;2023-02-21T09:26:38;3.20;;;1.67;;
73954;SDS011;62306;52.516;13.290;2023-02-21T09:29:06;3.95;;;1.77;;
73954;SDS011;62306;52.516;13.290;2023-02-21T09:31:34;3.85;;;1.90;;
73954;SDS011;62306;52.516;13.290;2023-02-21T09:34:01;6.07;;;1.60;;
73954;SDS011;62306;52.516;13.290;2023-02-21T09:36:28;5.25;;;1.83;;
73954;SDS011;62306;52.516;13.290;2023-02-21T09:38:56;10.63;;;3.50;;
73954;SDS011;62306;52.516;13.290;2023-02-21T09:41:23;4.15;;;1.80;;
73954;SDS011;62306;52.516;13.290;2023-02-21T09:43:51;3.35;;;1.80;;
73954;SDS011;62306;52.516;13.290;2023-02-21T09:46:20;4.38;;;2.00;;
73954;SDS011;62306;52.516;13.290;2023-02-21T09:48:57;4.88;;;1.45;;
73954;SDS011;62306;52.516;13.290;2023-02-21T09:51:26;5.70;;;1.92;;
73954;SDS011;62306;52.516;13.290;2023-02-21T09:53:54;5.35;;;1.33;;
73954;SDS011;62306;52.516;13.290;2023-02-21T09:56:25;5.50;;;1.70;;
73954;SDS011;62306;52.516;13.290;2023-02-21T09:58:54;8.85;;;1.75;;
73954;SDS011;62306;52.516;13.290;2023-02-21T10:01:24;5.22;;;1.45;;
73954;SDS011;62306;52.516;13.290;2023-02-21T10:04:04;7.68;;;1.73;;
73954;SDS011;62306;52.516;13.290;2023-02-21T10:06:42;7.65;;;1.58;;
73954;SDS011;62306;52.516;13.290;2023-02-21T10:09:20;5.47;;;1.80;;
73954;SDS011;62306;52.516;13.290;2023-02-21T10:11:58;7.22;;;1.98;;
73954;SDS011;62306;52.516;13.290;2023-02-21T10:14:36;7.90;;;1.42;;
73954;SDS011;62306;52.516;13.290;2023-02-21T10:17:14;8.23;;;1.85;;
73954;SDS011;62306;52.516;13.290;2023-02-21T10:19:47;4.43;;;1.75;;
73954;SDS011;62306;52.516;13.290;2023-02-21T10:22:18;4.70;;;1.85;;
73954;SDS011;62306;52.516;13.290;2023-02-21T10:24:48;10.90;;;1.83;;
73954;SDS011;62306;52.516;13.290;2023-02-21T10:27:17;8.40;;;1.30;;
73954;SDS011;62306;52.516;13.290;2023-02-21T10:29:47;7.70;;;1.40;;
73954;SDS011;62306;52.516;13.290;2023-02-21T10:34:46;11.50;;;2.17;;
73954;SDS011;62306;52.516;13.290;2023-02-21T10:37:20;6.90;;;1.48;;
73954;SDS011;62306;52.516;13.290;2023-02-21T10:39:54;8.13;;;1.50;;
73954;SDS011;62306;52.516;13.290;2023-02-21T10:42:28;3.88;;;1.33;;
73954;SDS011;62306;52.516;13.290;2023-02-21T10:44:59;4.85;;;1.42;;
73954;SDS011;62306;52.516;13.290;2023-02-21T10:47:28;3.35;;;1.20;;
73954;SDS011;62306;52.516;13.290;2023-02-21T10:50:04;2.63;;;1.00;;
73954;SDS011;62306;52.516;13.290;2023-02-21T10:52:35;7.53;;;1.20;;
73954;SDS011;62306;52.516;13.290;2023-02-21T10:55:05;4.35;;;1.50;;
73954;SDS011;62306;52.516;13.290;2023-02-21T10:57:39;2.55;;;1.00;;
73954;SDS011;62306;52.516;13.290;2023-02-21T11:00:09;5.32;;;1.33;;
73954;SDS011;62306;52.516;13.290;2023-02-21T11:02:45;4.72;;;1.52;;
73954;SDS011;62306;52.516;13.290;2023-02-21T11:05:18;7.30;;;1.38;;
73954;SDS011;62306;52.516;13.290;2023-02-21T11:07:55;3.00;;;1.23;;
73954;SDS011;62306;52.516;13.290;2023-02-21T11:10:30;14.05;;;1.75;;
73954;SDS011;62306;52.516;13.290;2023-02-21T11:13:02;5.00;;;1.77;;
73954;SDS011;62306;52.516;13.290;2023-02-21T11:15:32;4.45;;;1.60;;
73954;SDS011;62306;52.516;13.290;2023-02-21T11:18:03;10.10;;;2.72;;
73954;SDS011;62306;52.516;13.290;2023-02-21T11:20:36;7.25;;;1.67;;
73954;SDS011;62306;52.516;13.290;2023-02-21T11:23:03;5.63;;;1.55;;
73954;SDS011;62306;52.516;13.290;2023-02-21T11:25:38;9.50;;;2.10;;
73954;SDS011;62306;52.516;13.290;2023-02-21T11:28:05;8.38;;;2.17;;
73954;SDS011;62306;52.516;13.290;2023-02-21T11:30:46;12.15;;;1.88;;
73954;SDS011;62306;52.516;13.290;2023-02-21T11:33:17;9.15;;;1.67;;
73954;SDS011;62306;52.516;13.290;2023-02-21T11:35:47;12.18;;;2.30;;
73954;SDS011;62306;52.516;13.290;2023-02-21T11:38:29;14.65;;;2.30;;
73954;SDS011;62306;52.516;13.290;2023-02-21T11:41:01;12.95;;;1.80;;
73954;SDS011;62306;52.516;13.290;2023-02-21T11:43:30;7.35;;;1.40;;
73954;SDS011;62306;52.516;13.290;2023-02-21T11:46:02;10.02;;;1.88;;
73954;SDS011;62306;52.516;13.290;2023-02-21T11:48:45;6.35;;;1.45;;
73954;SDS011;62306;52.516;13.290;2023-02-21T11:51:30;7.03;;;1.73;;
73954;SDS011;62306;52.516;13.290;2023-02-21T11:54:00;14.40;;;3.17;;
73954;SDS011;62306;52.516;13.290;2023-02-21T11:56:33;10.73;;;1.88;;
73954;SDS011;62306;52.516;13.290;2023-02-21T11:59:27;11.25;;;2.00;;
73954;SDS011;62306;52.516;13.290;2023-02-21T12:02:04;7.28;;;1.92;;
73954;SDS011;62306;52.516;13.290;2023-02-21T12:04:55;12.57;;;3.50;;
73954;SDS011;62306;52.516;13.290;2023-02-21T12:07:35;13.30;;;2.83;;
73954;SDS011;62306;52.516;13.290;2023-02-21T12:10:14;13.57;;;1.95;;
73954;SDS011;62306;52.516;13.290;2023-02-21T12:12:58;8.68;;;2.20;;
73954;SDS011;62306;52.516;13.290;2023-02-21T12:15:32;7.45;;;1.55;;
73954;SDS011;62306;52.516;13.290;2023-02-21T12:18:08;8.65;;;1.85;;
73954;SDS011;62306;52.516;13.290;2023-02-21T12:21:04;8.52;;;1.98;;
73954;SDS011;62306;52.516;13.290;2023-02-21T12:23:42;11.02;;;2.30;;
73954;SDS011;62306;52.516;13.290;2023-02-21T12:26:20;9.18;;;1.85;;
73954;SDS011;62306;52.516;13.290;2023-02-21T12:29:07;12.32;;;2.30;;
73954;SDS011;62306;52.516;13.290;2023-02-21T12:31:45;10.98;;;1.88;;
73954;SDS011;62306;52.516;13.290;2023-02-21T12:34:25;9.32;;;1.85;;
73954;SDS011;62306;52.516;13.290;2023-02-21T12:37:11;14.65;;;2.15;;
73954;SDS011;62306;52.516;13.290;2023-02-21T12:39:58;10.23;;;2.15;;
73954;SDS011;62306;52.516;13.290;2023-02-21T12:42:40;13.15;;;2.33;;
73954;SDS011;62306;52.516;13.290;2023-02-21T12:45:25;8.98;;;2.17;;
73954;SDS011;62306;52.516;13.290;2023-02-21T12:48:03;14.50;;;2.80;;
73954;SDS011;62306;52.516;13.290;2023-02-21T12:50:37;10.63;;;2.17;;
73954;SDS011;62306;52.516;13.290;2023-02-21T12:53:09;10.10;;;1.70;;
73954;SDS011;62306;52.516;13.290;2023-02-21T12:55:43;7.55;;;1.80;;
73954;SDS011;62306;52.516;13.290;2023-02-21T12:58:15;16.10;;;2.17;;
73954;SDS011;62306;52.516;13.290;2023-02-21T13:00:51;7.53;;;1.80;;
73954;SDS011;62306;52.516;13.290;2023-02-21T13:03:29;13.52;;;2.58;;
73954;SDS011;62306;52.516;13.290;2023-02-21T13:06:04;12.80;;;3.17;;
73954;SDS011;62306;52.516;13.290;2023-02-21T13:08:39;16.40;;;4.20;;
73954;SDS011;62306;52.516;13.290;2023-02-21T13:11:15;9.40;;;2.05;;
73954;SDS011;62306;52.516;13.290;2023-02-21T13:13:47;11.80;;;1.90;;
73954;SDS011;62306;52.516;13.290;2023-02-21T13:16:15;9.18;;;1.90;;
73954;SDS011;62306;52.516;13.290;2023-02-21T13:18:43;15.23;;;2.15;;
73954;SDS011;62306;52.516;13.290;2023-02-21T13:21:17;8.88;;;1.75;;
73954;SDS011;62306;52.516;13.290;2023-02-21T13:23:56;12.93;;;2.83;;
73954;SDS011;62306;52.516;13.290;2023-02-21T13:26:31;17.92;;;2.70;;
73954;SDS011;62306;52.516;13.290;2023-02-21T13:29:12;10.52;;;2.40;;
73954;SDS011;62306;52.516;13.290;2023-02-21T13:31:45;14.70;;;2.53;;
73954;SDS011;62306;52.516;13.290;2023-02-21T13:34:17;15.30;;;2.38;;
73954;SDS011;62306;52.516;13.290;2023-02-21T13:36:47;15.88;;;2.25;;
73954;SDS011;62306;52.516;13.290;2023-02-21T13:39:16;14.85;;;2.22;;
73954;SDS011;62306;52.516;13.290;2023-02-21T13:41:47;13.45;;;2.25;;
73954;SDS011;62306;52.516;13.290;2023-02-21T13:44:17;14.38;;;2.45;;
73954;SDS011;62306;52.516;13.290;2023-02-21T13:47:00;14.45;;;2.17;;
73954;SDS011;62306;52.516;13.290;2023-02-21T13:49:35;10.95;;;2.30;;
73954;SDS011;62306;52.516;13.290;2023-02-21T13:55:24;15.07;;;2.20;;
73954;SDS011;62306;52.516;13.290;2023-02-21T14:00:46;15.75;;;3.05;;
73954;SDS011;62306;52.516;13.290;2023-02-21T14:03:29;13.70;;;2.75;;
73954;SDS011;62306;52.516;13.290;2023-02-21T14:09:03;8.38;;;1.98;;
73954;SDS011;62306;52.516;13.290;2023-02-21T14:11:36;15.68;;;2.97;;
73954;SDS011;62306;52.516;13.290;2023-02-21T14:14:17;13.27;;;3.13;;
73954;SDS011;62306;52.516;13.290;2023-02-21T14:16:48;12.65;;;2.50;;
73954;SDS011;62306;52.516;13.290;2023-02-21T14:19:21;13.00;;;2.55;;
73954;SDS011;62306;52.516;13.290;2023-02-21T14:21:55;8.45;;;2.38;;
73954;SDS011;62306;52.516;13.290;2023-02-21T14:24:27;16.70;;;2.65;;
73954;SDS011;62306;52.516;13.290;2023-02-21T14:27:00;16.92;;;3.67;;
73954;SDS011;62306;52.516;13.290;2023-02-21T14:29:36;13.80;;;2.90;;
73954;SDS011;62306;52.516;13.290;2023-02-21T14:32:16;19.80;;;2.95;;
73954;SDS011;62306;52.516;13.290;2023-02-21T14:34:52;15.27;;;2.47;;
73954;SDS011;62306;52.516;13.290;2023-02-21T14:37:23;15.13;;;2.78;;
73954;SDS011;62306;52.516;13.290;2023-02-21T14:39:54;15.65;;;2.22;;
73954;SDS011;62306;52.516;13.290;2023-02-21T14:42:27;19.23;;;3.13;;
73954;SDS011;62306;52.516;13.290;2023-02-21T14:45:20;17.98;;;2.55;;
73954;SDS011;62306;52.516;13.290;2023-02-21T14:51:07;14.95;;;2.42;;
73954;SDS011;62306;52.516;13.290;2023-02-21T14:56:31;22.02;;;2.97;;
73954;SDS011;62306;52.516;13.290;2023-02-21T14:59:26;12.65;;;3.40;;
73954;SDS011;62306;52.516;13.290;2023-02-21T15:02:06;16.27;;;3.15;;
73954;SDS011;62306;52.516;13.290;2023-02-21T15:04:44;19.52;;;3.38;;
73954;SDS011;62306;52.516;13.290;2023-02-21T15:07:19;19.00;;;2.92;;
73954;SDS011;62306;52.516;13.290;2023-02-21T15:12:38;19.95;;;2.75;;
73954;SDS011;62306;52.516;13.290;2023-02-21T15:15:11;16.58;;;3.20;;
73954;SDS011;62306;52.516;13.290;2023-02-21T15:17:41;14.20;;;2.45;;
73954;SDS011;62306;52.516;13.290;2023-02-21T15:20:12;18.20;;;2.67;;
73954;SDS011;62306;52.516;13.290;2023-02-21T15:22:43;16.02;;;2.67;;
73954;SDS011;62306;52.516;13.290;2023-02-21T15:25:12;14.40;;;4.35;;
73954;SDS011;62306;52.516;13.290;2023-02-21T15:30:31;18.83;;;4.30;;
73954;SDS011;62306;52.516;13.290;2023-02-21T15:33:09;20.77;;;3.70;;